Friday, February 23, 2018, 1:30 PM EST
Back to Local

KAUG, Augusta State Airport

Location: Augusta, ME, United States Lat: 44.317
Local Time: 1:30 PM EST (18:30 GMT) Lon: -69.8
Time Zone: US/Eastern Elev: 351 ft

Show me the last for .
Show Decoded

2018-02-23 12:53 METAR KAUG 231753Z AUTO 16008KT 10SM CLR 00/M08 A3057 RMK AO2 SLP356 T00001083
                 10000 21061 58043 =
2018-02-23 11:53 METAR KAUG 231653Z AUTO 15007KT 10SM CLR M01/M11 A3062 RMK AO2 SLP376 T10061106
                 =
2018-02-23 10:53 METAR KAUG 231553Z AUTO VRB04KT 10SM CLR M02/M12 A3066 RMK AO2 SLP387 T10171117
                 =
2018-02-23 09:53 METAR KAUG 231453Z AUTO 00000KT 10SM CLR M03/M12 A3069 RMK AO2 SLP400 T10281122
                 58010 =
2018-02-23 08:53 METAR KAUG 231353Z AUTO 09003KT 10SM CLR M04/M12 A3070 RMK AO2 SLP403 T10391122
                 =
2018-02-23 07:53 METAR KAUG 231253Z AUTO 06005KT 10SM CLR M06/M12 A3072 RMK AO2 SLP408 T10561122
                 =
2018-02-23 06:53 METAR KAUG 231153Z AUTO 03005KT 10SM CLR M06/M13 A3072 RMK AO2 SLP409 T10611128
                 11039 21067 50003 =
2018-02-23 05:53 METAR KAUG 231053Z AUTO 06005KT 10SM CLR M06/M13 A3073 RMK AO2 SLP412 T10611128
                 =
2018-02-23 04:53 METAR KAUG 230953Z AUTO 06003KT 10SM CLR M06/M13 A3072 RMK AO2 SLP410 T10561128
                 =
2018-02-23 03:53 METAR KAUG 230853Z AUTO 06003KT 10SM CLR M05/M12 A3071 RMK AO2 SLP407 T10501122
                 55000 =
2018-02-23 02:53 METAR KAUG 230753Z AUTO 03003KT 10SM CLR M05/M12 A3070 RMK AO2 SLP403 T10501122
                 =
2018-02-23 01:53 METAR KAUG 230653Z AUTO 35004KT 10SM CLR M04/M12 A3071 RMK AO2 SLP405 T10441122
                 =
2018-02-23 00:53 METAR KAUG 230553Z AUTO 35004KT 10SM CLR M04/M12 A3072 RMK AO2 SLP407 T10391117
                 10000 21039 53015 =
2018-02-22 23:53 METAR KAUG 230453Z AUTO 35004KT 10SM CLR M03/M12 A3068 RMK AO2 SLP396 T10331122
                 400441033 =
2018-02-22 22:53 METAR KAUG 230353Z AUTO 35003KT 10SM CLR M02/M12 A3069 RMK AO2 SLP396 T10221122
                 =
2018-02-22 21:53 METAR KAUG 230253Z AUTO 01004KT 10SM CLR M03/M10 A3067 RMK AO2 SLP392 T10281100
                 53005 =
2018-02-22 20:53 METAR KAUG 230153Z AUTO 34003KT 10SM CLR M02/M09 A3067 RMK AO2 SLP390 T10171094
                 =
2018-02-22 19:53 METAR KAUG 230053Z AUTO 00000KT 10SM CLR M01/M11 A3065 RMK AO2 SLP384 T10061111
                 =
2018-02-22 18:53 METAR KAUG 222353Z AUTO 00000KT 10SM CLR 00/M11 A3066 RMK AO2 SLP386 T00001111
                 10017 20000 53009 =
2018-02-22 17:53 METAR KAUG 222253Z AUTO 06003KT 10SM CLR 01/M11 A3065 RMK AO2 SLP382 T00061111 =
2018-02-22 16:53 METAR KAUG 222153Z AUTO 06003KT 10SM BKN110 01/M11 A3063 RMK AO2 SLP378
                 T00111111 =
2018-02-22 15:53 METAR KAUG 222053Z AUTO 35005KT 10SM OVC110 02/M11 A3063 RMK AO2 SLP377
                 T00171111 53003 =
2018-02-22 14:53 METAR KAUG 221953Z AUTO 05003KT 10SM OVC110 02/M12 A3061 RMK AO2 SLP370
                 T00171122 =
2018-02-22 13:53 METAR KAUG 221853Z AUTO VRB03KT 10SM BKN110 02/M12 A3061 RMK AO2 SLP371
                 T00171122 =

Support USWX by starting your Amazon purchase here.